Time;durP1;ratioP1;P1;durP2;ratioP2;P2;SDS_P1;SDS_P2;PMS_P1;PMS_P2;Temp;Humidity;BMP_temperature;BMP_pressure;BME280_temperature;BME280_humidity;BME280_pressure;Samples;Min_cycle;Max_cycle;Signal;HPM_P1;HPM_P2
2021/06/02 00:01:50;;;;;;;6.93;5.60;;;11.20;99.90;;;;;;5070592;28;20533;-66
2021/06/02 00:04:19;;;;;;;8.97;5.50;;;11.30;99.90;;;;;;5070851;28;20442;-66
2021/06/02 00:06:49;;;;;;;7.13;5.73;;;11.30;99.90;;;;;;5070578;28;20565;-66
2021/06/02 00:09:16;;;;;;;9.80;5.60;;;11.10;99.90;;;;;;5070034;28;20492;-66
2021/06/02 00:11:43;;;;;;;7.63;6.17;;;11.10;99.90;;;;;;5070179;28;21018;-66
2021/06/02 00:14:10;;;;;;;7.30;5.80;;;11.10;99.90;;;;;;5070183;28;21042;-66
2021/06/02 00:16:39;;;;;;;7.43;5.60;;;11.00;99.90;;;;;;5070572;28;20539;-66
2021/06/02 00:19:05;;;;;;;8.20;6.10;;;10.90;99.90;;;;;;5070183;28;20864;-67
2021/06/02 00:21:34;;;;;;;7.53;5.30;;;10.90;99.90;;;;;;5070142;28;20596;-66
2021/06/02 00:24:00;;;;;;;6.60;6.00;;;10.90;99.90;;;;;;5070349;28;20439;-66
2021/06/02 00:26:29;;;;;;;6.80;6.20;;;10.80;99.90;;;;;;5070363;28;20968;-66
2021/06/02 00:28:55;;;;;;;6.50;5.77;;;10.70;99.90;;;;;;5070006;28;20451;-66
2021/06/02 00:31:22;;;;;;;6.40;5.80;;;10.60;99.90;;;;;;5070303;28;20696;-66
2021/06/02 00:33:50;;;;;;;6.87;6.17;;;10.60;99.90;;;;;;5070254;28;20857;-66
2021/06/02 00:36:20;;;;;;;7.77;6.40;;;10.50;99.90;;;;;;5069299;28;20454;-66
2021/06/02 00:38:47;;;;;;;7.57;5.90;;;10.40;99.90;;;;;;5069999;28;20875;-66
2021/06/02 00:41:13;;;;;;;7.30;6.60;;;10.30;99.90;;;;;;5069451;28;20475;-66
2021/06/02 00:43:41;;;;;;;7.53;6.83;;;10.20;99.90;;;;;;5070059;28;20552;-66
2021/06/02 00:46:07;;;;;;;7.23;6.47;;;10.20;99.90;;;;;;5070174;28;20534;-66
2021/06/02 00:48:37;;;;;;;9.43;7.80;;;10.10;99.90;;;;;;5069881;28;20459;-66
2021/06/02 00:51:05;;;;;;;9.13;8.23;;;10.10;99.90;;;;;;5069502;28;20459;-66
2021/06/02 00:53:35;;;;;;;8.23;6.60;;;10.00;99.90;;;;;;5069719;28;20859;-66
2021/06/02 00:56:03;;;;;;;7.70;6.90;;;10.00;99.90;;;;;;5069873;28;21034;-66
2021/06/02 00:58:34;;;;;;;7.83;7.10;;;9.90;99.90;;;;;;5070083;28;20443;-66
2021/06/02 01:01:01;;;;;;;7.77;6.97;;;9.90;99.90;;;;;;5069493;28;21015;-66
2021/06/02 01:03:29;;;;;;;7.63;6.83;;;9.80;99.90;;;;;;5069894;28;20556;-66
2021/06/02 01:05:56;;;;;;;7.70;6.80;;;9.80;99.90;;;;;;5069823;28;20443;-66
2021/06/02 01:08:24;;;;;;;7.90;7.07;;;9.80;99.90;;;;;;5069817;28;20898;-66
2021/06/02 01:10:51;;;;;;;7.53;6.70;;;9.80;99.90;;;;;;5069870;28;20482;-66
2021/06/02 01:13:20;;;;;;;7.17;5.90;;;9.80;99.90;;;;;;5070092;28;20531;-66
2021/06/02 01:15:48;;;;;;;9.50;6.93;;;9.80;99.90;;;;;;5070268;28;20467;-66
2021/06/02 01:18:15;;;;;;;9.40;7.00;;;9.70;99.90;;;;;;5070066;28;20458;-66
2021/06/02 01:20:42;;;;;;;7.53;6.80;;;9.70;99.90;;;;;;5069595;28;20596;-66
2021/06/02 01:23:12;;;;;;;8.90;7.20;;;9.70;99.90;;;;;;5069645;28;20956;-66
2021/06/02 01:25:40;;;;;;;9.07;7.57;;;9.70;99.90;;;;;;5070153;28;20455;-66
2021/06/02 01:28:06;;;;;;;7.90;7.00;;;9.70;99.90;;;;;;5069558;28;20534;-66
2021/06/02 01:30:33;;;;;;;8.73;6.80;;;9.50;99.90;;;;;;5069361;28;20463;-65
2021/06/02 01:33:33;;;;;;;7.73;6.73;;;9.40;99.90;;;;;;5069927;28;20500;-66
2021/06/02 01:36:04;;;;;;;7.30;6.60;;;9.40;99.90;;;;;;5069952;28;20443;-66
2021/06/02 01:39:20;;;;;;;8.07;7.20;;;9.40;99.90;;;;;;5070097;28;20474;-66
2021/06/02 01:42:08;;;;;;;8.23;7.43;;;9.40;99.90;;;;;;5069860;28;20499;-66
2021/06/02 01:45:10;;;;;;;8.50;7.60;;;9.30;99.90;;;;;;5069953;28;20500;-67
2021/06/02 01:48:17;;;;;;;8.53;6.83;;;9.30;99.90;;;;;;5070378;28;20461;-66
2021/06/02 01:51:31;;;;;;;9.97;8.07;;;9.30;99.90;;;;;;5060121;28;20483;-66
2021/06/02 01:54:26;;;;;;;8.73;7.93;;;9.30;99.90;;;;;;5073001;28;20474;-66
2021/06/02 01:57:28;;;;;;;10.77;6.53;;;9.20;99.90;;;;;;5072933;28;20451;-66
2021/06/02 02:00:15;;;;;;;8.47;7.17;;;9.10;99.90;;;;;;5072774;28;20525;-66
2021/06/02 02:03:16;;;;;;;8.77;7.50;;;9.00;99.90;;;;;;5072639;28;20473;-66
2021/06/02 02:06:17;;;;;;;10.80;7.73;;;9.00;99.90;;;;;;5072797;28;20533;-66
2021/06/02 02:08:47;;;;;;;8.90;7.10;;;9.00;99.90;;;;;;5072684;28;20507;-66
2021/06/02 02:11:31;;;;;;;8.57;7.47;;;9.00;99.90;;;;;;5072352;28;20467;-66
2021/06/02 02:14:09;;;;;;;8.67;7.40;;;8.90;99.90;;;;;;5072914;28;20482;-66
2021/06/02 02:16:51;;;;;;;9.83;7.70;;;8.90;99.90;;;;;;5073120;28;21004;-66
2021/06/02 02:19:33;;;;;;;8.97;8.03;;;8.80;99.90;;;;;;5073153;28;20447;-67
2021/06/02 02:22:07;;;;;;;12.50;7.70;;;8.80;99.90;;;;;;5072924;28;20471;-66
2021/06/02 02:24:40;;;;;;;7.40;6.70;;;8.70;99.90;;;;;;5073060;28;20443;-68
2021/06/02 02:27:23;;;;;;;10.83;7.30;;;8.70;99.90;;;;;;5072636;28;20541;-66
2021/06/02 02:29:58;;;;;;;9.80;8.20;;;8.70;99.90;;;;;;5072430;28;20451;-66
2021/06/02 02:32:48;;;;;;;8.60;7.70;;;8.70;99.90;;;;;;5072600;28;20482;-66
2021/06/02 02:35:38;;;;;;;7.80;6.60;;;8.70;99.90;;;;;;5072534;28;20449;-67
2021/06/02 02:38:16;;;;;;;7.43;6.73;;;8.70;99.90;;;;;;5072585;28;20451;-67
2021/06/02 02:40:53;;;;;;;8.50;7.70;;;8.70;99.90;;;;;;5072207;28;20473;-67
2021/06/02 02:43:32;;;;;;;8.47;5.80;;;8.70;99.90;;;;;;5072578;28;20817;-66
2021/06/02 02:46:06;;;;;;;8.63;6.97;;;8.70;99.90;;;;;;5072544;28;20451;-66
2021/06/02 02:48:38;;;;;;;6.87;6.13;;;8.70;99.90;;;;;;5072273;28;20459;-65
2021/06/02 02:51:21;;;;;;;7.00;6.30;;;8.70;99.90;;;;;;5072094;28;20980;-66
2021/06/02 02:53:57;;;;;;;6.67;5.97;;;8.70;99.90;;;;;;5072228;28;20481;-65
2021/06/02 02:56:29;;;;;;;8.40;7.27;;;8.70;99.90;;;;;;5072176;28;21117;-66
2021/06/02 02:59:04;;;;;;;8.27;6.03;;;8.70;99.90;;;;;;5071515;28;20466;-66
2021/06/02 03:01:41;;;;;;;7.57;6.80;;;8.70;99.90;;;;;;5072024;28;20991;-65
2021/06/02 03:04:14;;;;;;;8.30;6.87;;;8.70;99.90;;;;;;5072139;28;20443;-65
2021/06/02 03:06:42;;;;;;;8.37;6.57;;;8.60;99.90;;;;;;5072318;28;20507;-66
2021/06/02 03:09:22;;;;;;;9.73;6.90;;;8.50;99.90;;;;;;5071690;28;20541;-67
2021/06/02 03:11:59;;;;;;;8.33;7.50;;;8.50;99.90;;;;;;5071906;28;20992;-67
2021/06/02 03:14:47;;;;;;;12.53;7.20;;;8.40;99.90;;;;;;5071690;28;20475;-66
2021/06/02 03:17:21;;;;;;;10.80;7.50;;;8.40;99.90;;;;;;5071857;28;20453;-66
2021/06/02 03:20:03;;;;;;;8.17;7.07;;;8.40;99.90;;;;;;5071577;28;20459;-66
2021/06/02 03:22:42;;;;;;;9.13;7.47;;;8.30;99.90;;;;;;5071525;28;20455;-66
2021/06/02 03:25:17;;;;;;;8.00;7.13;;;8.40;99.90;;;;;;5071209;28;20462;-66
2021/06/02 03:28:06;;;;;;;9.77;7.43;;;8.40;99.90;;;;;;5071100;28;20451;-65
2021/06/02 03:30:35;;;;;;;10.80;7.90;;;8.30;99.90;;;;;;5071247;28;20463;-66
2021/06/02 03:33:22;;;;;;;10.53;7.00;;;8.30;99.90;;;;;;5071705;28;20853;-66
2021/06/02 03:35:58;;;;;;;9.40;6.80;;;8.40;99.90;;;;;;5071194;28;20450;-65
2021/06/02 03:38:56;;;;;;;10.37;7.13;;;8.40;99.90;;;;;;5071097;28;20451;-65
2021/06/02 03:41:34;;;;;;;12.17;8.30;;;8.30;99.90;;;;;;5070896;28;20891;-66
2021/06/02 03:44:14;;;;;;;12.57;8.57;;;8.20;99.90;;;;;;5070994;28;20862;-66
2021/06/02 03:46:50;;;;;;;10.50;7.73;;;8.20;99.90;;;;;;5070906;28;20542;-66
2021/06/02 03:49:28;;;;;;;9.07;8.20;;;8.20;99.90;;;;;;5070816;28;20447;-66
2021/06/02 03:52:02;;;;;;;8.30;7.50;;;8.20;99.90;;;;;;5070813;28;20462;-66
2021/06/02 03:54:35;;;;;;;10.50;8.10;;;8.20;99.90;;;;;;5070841;28;20939;-66
2021/06/02 03:57:15;;;;;;;8.87;7.47;;;8.20;99.90;;;;;;5070747;28;20504;-66
2021/06/02 03:59:44;;;;;;;8.07;7.00;;;8.30;99.90;;;;;;5070423;28;20442;-66
2021/06/02 04:02:18;;;;;;;12.53;7.57;;;8.30;99.90;;;;;;5070479;28;20544;-66
2021/06/02 04:05:11;;;;;;;8.33;7.53;;;8.30;99.90;;;;;;5070472;28;20447;-66
2021/06/02 04:07:47;;;;;;;9.77;7.77;;;8.30;99.90;;;;;;5070563;28;20534;-66
2021/06/02 04:10:19;;;;;;;7.13;6.43;;;8.30;99.90;;;;;;5070100;28;20451;-66
2021/06/02 04:12:52;;;;;;;8.80;7.67;;;8.40;99.90;;;;;;5070402;28;20478;-66
2021/06/02 04:15:23;;;;;;;9.63;8.20;;;8.50;99.90;;;;;;5070460;28;20923;-67
2021/06/02 04:17:51;;;;;;;8.87;7.97;;;8.50;99.90;;;;;;5070347;28;20534;-66
2021/06/02 04:20:20;;;;;;;11.57;7.87;;;8.50;99.90;;;;;;5069921;28;20501;-66
2021/06/02 04:22:48;;;;;;;9.30;7.63;;;8.50;99.90;;;;;;5070210;28;20463;-66
2021/06/02 04:25:16;;;;;;;10.63;7.00;;;8.60;99.90;;;;;;5070360;28;20447;-66
2021/06/02 04:27:46;;;;;;;10.23;7.43;;;8.60;99.90;;;;;;5070567;28;20488;-66
2021/06/02 04:30:15;;;;;;;9.77;7.90;;;8.80;99.90;;;;;;5069957;28;20493;-66
2021/06/02 04:32:43;;;;;;;10.73;8.07;;;9.00;99.90;;;;;;5070242;28;20537;-66
2021/06/02 04:35:13;;;;;;;8.57;7.67;;;9.10;99.90;;;;;;5070358;28;20450;-66
2021/06/02 04:37:41;;;;;;;10.70;8.37;;;9.10;99.90;;;;;;5070906;28;20857;-66
2021/06/02 04:40:10;;;;;;;9.20;7.30;;;9.20;99.90;;;;;;5069916;28;20842;-66
2021/06/02 04:42:37;;;;;;;11.57;7.60;;;9.20;99.90;;;;;;5070144;28;20446;-65
2021/06/02 04:45:05;;;;;;;8.40;7.60;;;9.30;99.90;;;;;;5070177;28;20443;-66
2021/06/02 04:47:33;;;;;;;9.53;7.20;;;9.40;99.90;;;;;;5070458;28;20447;-66
2021/06/02 04:50:11;;;;;;;8.17;6.73;;;9.40;99.90;;;;;;5070121;28;20438;-66
2021/06/02 04:53:22;;;;;;;10.20;6.93;;;9.40;99.90;;;;;;5070225;28;20447;-67
2021/06/02 04:56:34;;;;;;;10.87;7.50;;;9.50;99.90;;;;;;5070118;28;20443;-66
2021/06/02 04:59:28;;;;;;;8.33;7.53;;;9.50;99.90;;;;;;5070027;28;20522;-67
2021/06/02 05:02:12;;;;;;;8.30;7.50;;;9.60;99.90;;;;;;5070282;28;20519;-67
2021/06/02 05:05:04;;;;;;;9.60;7.80;;;9.70;99.90;;;;;;5070269;28;20970;-66
2021/06/02 05:08:21;;;;;;;13.00;8.00;;;9.70;99.90;;;;;;5069885;28;20480;-66
2021/06/02 05:11:21;;;;;;;11.80;7.57;;;10.00;99.90;;;;;;5069358;28;20470;-67
2021/06/02 05:14:33;;;;;;;9.50;7.80;;;10.10;99.90;;;;;;5066983;28;20470;-67
2021/06/02 05:17:34;;;;;;;15.23;9.37;;;10.20;99.90;;;;;;5069572;28;21040;-68
2021/06/02 05:20:52;;;;;;;11.30;9.97;;;10.30;99.90;;;;;;5069286;28;20446;-67
2021/06/02 05:23:48;;;;;;;10.33;9.00;;;10.50;99.90;;;;;;5071605;28;20445;-67
2021/06/02 05:26:48;;;;;;;11.63;9.80;;;10.70;99.90;;;;;;5073535;28;20442;-67
2021/06/02 05:29:52;;;;;;;10.97;9.70;;;10.80;99.90;;;;;;5032203;28;20820;-67
2021/06/02 05:32:44;;;;;;;13.00;8.90;;;11.00;99.90;;;;;;5073054;28;21079;-67
2021/06/02 05:35:44;;;;;;;12.30;9.13;;;11.20;99.90;;;;;;5073093;28;20849;-67
2021/06/02 05:38:52;;;;;;;11.10;9.53;;;11.40;99.90;;;;;;5039400;28;21005;-64
2021/06/02 05:41:51;;;;;;;15.50;8.47;;;11.60;99.90;;;;;;5072793;28;20463;-68
2021/06/02 05:44:46;;;;;;;10.47;9.47;;;11.80;99.90;;;;;;5073073;28;20929;-67
2021/06/02 05:47:34;;;;;;;9.87;8.83;;;12.00;99.90;;;;;;5073004;28;20442;-67
2021/06/02 05:50:48;;;;;;;15.47;10.53;;;12.20;99.90;;;;;;5072575;28;20457;-67
2021/06/02 05:53:54;;;;;;;13.83;9.50;;;12.40;99.90;;;;;;5072833;28;20539;-67
2021/06/02 05:56:47;;;;;;;13.53;8.83;;;12.60;99.90;;;;;;5072722;28;20974;-67
2021/06/02 05:59:50;;;;;;;12.80;8.07;;;12.70;99.90;;;;;;5072334;28;21172;-65
2021/06/02 06:02:43;;;;;;;15.00;7.90;;;12.90;99.90;;;;;;5072364;28;20470;-68
2021/06/02 06:05:17;;;;;;;7.77;6.33;;;13.10;99.90;;;;;;5072801;28;20443;-67
2021/06/02 06:08:17;;;;;;;6.93;6.13;;;13.30;99.90;;;;;;5072654;28;20850;-67
2021/06/02 06:11:04;;;;;;;6.63;5.93;;;13.40;99.90;;;;;;5072135;28;20475;-67
2021/06/02 06:13:56;;;;;;;12.03;5.40;;;13.60;99.90;;;;;;5072383;28;20483;-67
2021/06/02 06:16:49;;;;;;;6.03;5.13;;;13.70;99.90;;;;;;5072337;28;20455;-69
2021/06/02 06:19:58;;;;;;;7.00;5.10;;;13.80;99.90;;;;;;5072119;28;20529;-65
2021/06/02 06:22:47;;;;;;;7.03;4.90;;;13.90;99.90;;;;;;5072245;28;20457;-67
2021/06/02 06:25:19;;;;;;;5.47;4.97;;;14.10;99.90;;;;;;5072173;28;20455;-66
2021/06/02 06:27:51;;;;;;;5.57;5.00;;;14.20;99.90;;;;;;5072427;28;20449;-67
2021/06/02 06:30:21;;;;;;;5.20;4.30;;;14.30;99.90;;;;;;5071772;28;20542;-67
2021/06/02 06:32:50;;;;;;;5.20;4.37;;;14.40;99.90;;;;;;5072208;28;20534;-65
2021/06/02 06:35:18;;;;;;;7.47;4.60;;;14.50;99.90;;;;;;5070703;28;20446;-67
2021/06/02 06:37:48;;;;;;;7.53;4.90;;;14.60;99.90;;;;;;5072021;28;20864;-67
2021/06/02 06:40:16;;;;;;;6.13;4.50;;;14.70;99.90;;;;;;5071768;28;20438;-68
2021/06/02 06:42:44;;;;;;;5.83;4.83;;;14.90;99.90;;;;;;5072139;28;20447;-68
2021/06/02 06:45:16;;;;;;;8.67;4.80;;;15.00;99.90;;;;;;5071886;28;20538;-67
2021/06/02 06:47:44;;;;;;;4.57;4.17;;;15.20;99.90;;;;;;5072160;28;20853;-65
2021/06/02 06:50:12;;;;;;;6.30;5.30;;;15.30;99.90;;;;;;5071652;28;20458;-68
2021/06/02 06:52:42;;;;;;;8.23;4.60;;;15.50;99.90;;;;;;5072359;28;20446;-68
2021/06/02 06:55:10;;;;;;;4.93;4.27;;;15.60;99.90;;;;;;5072114;28;20478;-67
2021/06/02 06:57:38;;;;;;;5.20;4.13;;;15.70;99.90;;;;;;5072033;28;21008;-68
2021/06/02 07:00:06;;;;;;;8.30;4.30;;;15.90;99.90;;;;;;5071558;28;21010;-68
2021/06/02 07:02:36;;;;;;;4.73;4.33;;;16.00;99.90;;;;;;5071925;28;20451;-67
2021/06/02 07:05:04;;;;;;;9.37;5.63;;;16.10;99.90;;;;;;5071884;28;20818;-67
2021/06/02 07:07:32;;;;;;;8.60;4.97;;;16.20;99.90;;;;;;5071586;28;20450;-67
2021/06/02 07:09:58;;;;;;;5.30;4.10;;;16.30;99.90;;;;;;5071205;28;20995;-67
2021/06/02 07:12:26;;;;;;;6.20;4.53;;;16.40;99.90;;;;;;5071422;28;20446;-67
2021/06/02 07:14:54;;;;;;;5.30;4.80;;;16.50;99.90;;;;;;5071265;28;20471;-67
2021/06/02 07:17:22;;;;;;;5.73;4.33;;;16.60;99.90;;;;;;5071367;28;20462;-67
2021/06/02 07:19:57;;;;;;;7.20;4.50;;;16.80;99.90;;;;;;5071025;28;20534;-67
2021/06/02 07:22:25;;;;;;;8.17;4.70;;;17.00;99.90;;;;;;5071311;28;20462;-67
2021/06/02 07:24:54;;;;;;;5.70;4.87;;;17.10;99.90;;;;;;5071492;28;20525;-67
2021/06/02 07:27:21;;;;;;;6.90;4.40;;;17.30;99.90;;;;;;5071403;28;20592;-67
2021/06/02 07:29:47;;;;;;;7.73;4.80;;;17.40;99.90;;;;;;5070944;28;20439;-68
2021/06/02 07:32:14;;;;;;;5.70;4.57;;;17.50;99.90;;;;;;5071248;28;20562;-68
2021/06/02 07:34:40;;;;;;;7.60;5.50;;;17.70;99.90;;;;;;5071269;28;20558;-67
2021/06/02 07:37:08;;;;;;;4.77;4.30;;;17.70;99.90;;;;;;5071215;28;20447;-67
2021/06/02 07:39:34;;;;;;;6.03;4.43;;;17.90;99.90;;;;;;5070687;28;20443;-68
2021/06/02 07:42:01;;;;;;;7.17;4.17;;;18.00;99.80;;;;;;5070989;28;20847;-67
2021/06/02 07:44:27;;;;;;;5.20;3.80;;;18.10;99.90;;;;;;5071038;28;21002;-67
2021/06/02 07:46:54;;;;;;;7.67;4.53;;;18.20;99.40;;;;;;5070989;28;20537;-67
2021/06/02 07:49:20;;;;;;;5.53;3.83;;;18.40;98.30;;;;;;5070999;28;20576;-68
2021/06/02 07:51:51;;;;;;;4.90;3.30;;;18.60;99.00;;;;;;5070586;28;20559;-67
2021/06/02 07:54:19;;;;;;;6.57;4.43;;;18.70;97.80;;;;;;5070557;28;20474;-67
2021/06/02 07:56:45;;;;;;;6.87;3.90;;;18.80;98.30;;;;;;5070621;28;20464;-67
2021/06/02 07:59:12;;;;;;;5.13;3.80;;;19.00;98.60;;;;;;5070318;28;20453;-65
2021/06/02 08:01:38;;;;;;;4.90;3.50;;;19.10;97.50;;;;;;5070564;28;20434;-67
2021/06/02 08:04:05;;;;;;;6.80;3.83;;;19.10;96.40;;;;;;5070556;28;20450;-65
2021/06/02 08:06:31;;;;;;;9.43;4.10;;;19.20;95.60;;;;;;5070413;28;20466;-65
2021/06/02 08:08:58;;;;;;;4.13;3.50;;;19.30;95.70;;;;;;5070209;28;20542;-66
2021/06/02 08:11:26;;;;;;;4.40;3.73;;;19.50;96.40;;;;;;5070284;28;20930;-65
2021/06/02 08:13:52;;;;;;;6.80;3.87;;;19.60;95.70;;;;;;5070511;28;20478;-66
2021/06/02 08:16:18;;;;;;;5.50;3.77;;;19.70;94.40;;;;;;5071121;28;21009;-67
2021/06/02 08:18:45;;;;;;;5.67;3.00;;;19.80;93.10;;;;;;5070739;28;20492;-67
2021/06/02 08:21:11;;;;;;;4.50;3.50;;;19.90;93.50;;;;;;5070448;28;22242;-66
2021/06/02 08:23:37;;;;;;;4.57;3.30;;;20.00;95.30;;;;;;5070698;28;20471;-66
2021/06/02 08:26:05;;;;;;;4.90;3.20;;;20.10;93.00;;;;;;5070396;28;20461;-66
2021/06/02 08:28:33;;;;;;;5.20;3.87;;;20.40;93.30;;;;;;5070807;28;20462;-67
2021/06/02 08:30:59;;;;;;;5.60;3.70;;;20.40;92.40;;;;;;5070992;28;20562;-67
2021/06/02 08:33:25;;;;;;;3.67;3.20;;;20.50;93.50;;;;;;5070329;28;20487;-65
2021/06/02 08:35:52;;;;;;;8.70;3.60;;;20.60;93.10;;;;;;5070291;28;20876;-67
2021/06/02 08:38:18;;;;;;;5.23;3.27;;;20.80;91.30;;;;;;5070244;28;20816;-67
2021/06/02 08:40:45;;;;;;;4.70;3.37;;;20.90;91.00;;;;;;5070034;28;20528;-67
2021/06/02 08:43:11;;;;;;;5.07;2.97;;;21.00;91.80;;;;;;5071633;28;20447;-68
2021/06/02 08:45:39;;;;;;;8.00;3.17;;;21.20;91.70;;;;;;5070471;28;20534;-67
2021/06/02 08:48:07;;;;;;;4.50;2.97;;;21.30;90.40;;;;;;5070162;28;20453;-67
2021/06/02 08:50:33;;;;;;;4.43;3.33;;;21.40;89.50;;;;;;5069690;28;20463;-66
2021/06/02 08:53:00;;;;;;;5.67;3.40;;;21.50;92.60;;;;;;5069913;28;20443;-66
2021/06/02 08:55:27;;;;;;;6.00;3.40;;;21.70;91.80;;;;;;5070020;28;20483;-66
2021/06/02 08:57:54;;;;;;;4.47;3.30;;;21.70;90.20;;;;;;5068948;28;20956;-66
2021/06/02 09:00:23;;;;;;;4.23;2.80;;;21.90;91.00;;;;;;5069802;28;20485;-66
2021/06/02 09:02:53;;;;;;;5.90;3.50;;;22.10;88.00;;;;;;5069891;28;20481;-66
2021/06/02 09:05:20;;;;;;;5.93;3.17;;;22.20;87.70;;;;;;5069609;28;20828;-66
2021/06/02 09:07:51;;;;;;;3.97;2.73;;;22.20;85.00;;;;;;5069801;28;21197;-66
2021/06/02 09:10:18;;;;;;;6.40;3.10;;;22.30;89.70;;;;;;5069372;28;20434;-66
2021/06/02 09:12:45;;;;;;;4.70;3.70;;;22.60;86.90;;;;;;5069566;28;20447;-66
2021/06/02 09:15:14;;;;;;;4.37;3.20;;;22.80;86.30;;;;;;5069460;28;20917;-66
2021/06/02 09:17:48;;;;;;;6.23;3.20;;;22.90;80.40;;;;;;5069594;28;20886;-66
2021/06/02 09:20:32;;;;;;;5.03;3.00;;;23.10;79.00;;;;;;5069260;28;20449;-66
2021/06/02 09:22:59;;;;;;;5.43;2.73;;;23.20;78.30;;;;;;5069627;28;20453;-66
2021/06/02 09:25:26;;;;;;;6.47;2.90;;;23.30;78.00;;;;;;5069481;28;20449;-66
2021/06/02 09:27:55;;;;;;;6.43;4.23;;;23.50;78.30;;;;;;5069243;28;20482;-66
2021/06/02 09:30:24;;;;;;;7.67;2.90;;;23.60;75.10;;;;;;5069030;28;21176;-66
2021/06/02 09:32:53;;;;;;;3.97;2.67;;;23.50;74.60;;;;;;5069546;28;20549;-66
2021/06/02 09:35:22;;;;;;;6.23;3.30;;;23.60;74.70;;;;;;5069383;28;21008;-66
2021/06/02 09:37:55;;;;;;;4.93;3.10;;;23.70;74.10;;;;;;5069445;28;20473;-66
2021/06/02 09:40:24;;;;;;;4.50;3.00;;;23.70;69.60;;;;;;5068912;28;20514;-66
2021/06/02 09:42:50;;;;;;;3.20;2.60;;;23.70;72.50;;;;;;5069264;28;20446;-66
2021/06/02 09:45:17;;;;;;;3.33;3.03;;;23.90;69.90;;;;;;5069553;28;20529;-66
2021/06/02 09:47:45;;;;;;;5.23;2.90;;;24.00;66.70;;;;;;5069190;28;20521;-66
2021/06/02 09:50:13;;;;;;;3.27;2.80;;;24.10;71.00;;;;;;5068806;28;21040;-66
2021/06/02 09:52:44;;;;;;;3.30;2.60;;;24.40;64.40;;;;;;5051341;28;20559;-67
2021/06/02 09:55:12;;;;;;;4.80;4.20;;;24.90;69.70;;;;;;5068904;28;20941;-66
2021/06/02 09:57:39;;;;;;;4.43;2.90;;;25.50;65.70;;;;;;5068952;28;20972;-66
2021/06/02 10:00:08;;;;;;;3.63;3.07;;;26.40;66.00;;;;;;5068812;28;20533;-66
2021/06/02 10:02:34;;;;;;;3.10;2.80;;;27.00;64.30;;;;;;5069210;28;20497;-66
2021/06/02 10:05:03;;;;;;;3.27;2.97;;;28.00;58.70;;;;;;5069080;28;20945;-67
2021/06/02 10:07:30;;;;;;;3.80;2.40;;;28.40;53.10;;;;;;5069149;28;20451;-67
2021/06/02 10:10:09;;;;;;;3.20;2.70;;;28.40;50.10;;;;;;5070927;28;20443;-67
2021/06/02 10:12:36;;;;;;;4.50;3.00;;;28.80;51.00;;;;;;5072713;28;20439;-67
2021/06/02 10:15:03;;;;;;;6.60;2.67;;;29.00;54.50;;;;;;5072247;28;21051;-66
2021/06/02 10:17:31;;;;;;;3.03;2.70;;;29.60;51.10;;;;;;5072353;28;20450;-67
2021/06/02 10:19:58;;;;;;;6.37;3.23;;;30.30;46.10;;;;;;5072121;28;20447;-67
2021/06/02 10:22:26;;;;;;;6.10;2.73;;;30.40;45.40;;;;;;5072226;28;20458;-66
2021/06/02 10:24:55;;;;;;;3.50;2.60;;;30.30;44.70;;;;;;5072276;28;20450;-66
2021/06/02 10:27:23;;;;;;;3.33;2.47;;;30.30;42.10;;;;;;5072579;28;20508;-66
2021/06/02 10:29:51;;;;;;;5.67;2.90;;;30.10;42.90;;;;;;5072128;28;20843;-66
2021/06/02 10:32:19;;;;;;;3.00;2.30;;;29.10;43.80;;;;;;5072372;28;20549;-66
2021/06/02 10:34:46;;;;;;;4.60;2.57;;;28.70;44.80;;;;;;5072262;28;20578;-66
2021/06/02 10:37:15;;;;;;;5.20;2.47;;;28.80;45.10;;;;;;5072115;28;20538;-66
2021/06/02 10:39:44;;;;;;;4.20;2.23;;;28.40;43.10;;;;;;5071890;28;20496;-66
2021/06/02 10:42:20;;;;;;;3.60;2.47;;;28.50;44.10;;;;;;5072182;28;21052;-66
2021/06/02 10:44:52;;;;;;;3.10;2.80;;;28.80;43.70;;;;;;5072767;28;20435;-66
2021/06/02 10:47:24;;;;;;;6.20;2.80;;;28.50;43.70;;;;;;5072284;28;20447;-66
2021/06/02 10:49:50;;;;;;;3.20;2.70;;;28.50;45.30;;;;;;5072067;28;20933;-66
2021/06/02 10:52:35;;;;;;;3.60;2.57;;;29.00;43.80;;;;;;5072391;28;20459;-67
2021/06/02 10:55:36;;;;;;;3.47;2.53;;;29.60;46.00;;;;;;5072592;28;20490;-66
2021/06/02 10:58:31;;;;;;;4.20;2.90;;;29.80;44.70;;;;;;5071475;28;20530;-67
2021/06/02 11:01:18;;;;;;;5.37;2.87;;;30.20;43.30;;;;;;5025071;28;20501;-66
2021/06/02 11:03:48;;;;;;;4.40;3.13;;;29.70;43.30;;;;;;5072039;28;20444;-65
2021/06/02 11:06:35;;;;;;;4.77;2.97;;;29.80;43.00;;;;;;5071824;28;20984;-65
2021/06/02 11:09:23;;;;;;;3.67;2.90;;;29.50;44.20;;;;;;5071462;28;20538;-66
2021/06/02 11:12:03;;;;;;;3.60;2.47;;;29.70;47.10;;;;;;5071839;28;20557;-66
2021/06/02 11:14:30;;;;;;;6.20;2.77;;;30.30;43.60;;;;;;5071838;28;20485;-66
2021/06/02 11:17:14;;;;;;;3.47;2.60;;;30.90;45.70;;;;;;5071768;28;20474;-65
2021/06/02 11:19:43;;;;;;;4.73;2.80;;;30.90;40.70;;;;;;5071394;28;20818;-65
2021/06/02 11:22:14;;;;;;;4.20;2.60;;;30.10;41.10;;;;;;5070655;28;20997;-67
2021/06/02 11:24:45;;;;;;;5.03;2.50;;;30.10;41.80;;;;;;5071773;28;20809;-65
2021/06/02 11:27:37;;;;;;;3.67;2.97;;;29.70;41.70;;;;;;5071579;28;20455;-65
2021/06/02 11:30:19;;;;;;;3.70;2.47;;;29.20;41.40;;;;;;5070878;28;20458;-65
2021/06/02 11:33:10;;;;;;;3.60;2.77;;;29.50;41.40;;;;;;5071622;28;20447;-65
2021/06/02 11:35:57;;;;;;;4.07;2.90;;;29.60;41.10;;;;;;5071192;28;20482;-66
2021/06/02 11:38:24;;;;;;;6.60;2.43;;;29.60;41.50;;;;;;5071231;28;20732;-66
2021/06/02 11:40:51;;;;;;;3.37;2.10;;;29.70;42.10;;;;;;5071081;28;20458;-66
2021/06/02 11:43:20;;;;;;;4.00;2.23;;;30.10;42.80;;;;;;5071095;28;20443;-66
2021/06/02 11:45:47;;;;;;;4.20;2.63;;;29.90;40.40;;;;;;5070680;28;20555;-66
2021/06/02 11:48:21;;;;;;;2.87;2.20;;;30.00;40.50;;;;;;5070663;28;21010;-66
2021/06/02 11:50:47;;;;;;;3.53;2.77;;;30.30;41.30;;;;;;5070108;28;20471;-66
2021/06/02 11:53:14;;;;;;;3.70;2.43;;;30.60;40.40;;;;;;5070723;28;20453;-66
2021/06/02 11:55:40;;;;;;;3.60;2.87;;;30.50;41.10;;;;;;5070644;28;20558;-66
2021/06/02 11:58:07;;;;;;;7.43;2.60;;;30.80;39.30;;;;;;5070555;28;20447;-66
2021/06/02 12:00:35;;;;;;;2.70;2.40;;;31.00;39.50;;;;;;5070213;28;20473;-66
2021/06/02 12:03:03;;;;;;;4.40;2.30;;;31.60;39.50;;;;;;5070462;28;20487;-66
2021/06/02 12:05:32;;;;;;;4.37;2.40;;;32.20;42.40;;;;;;5070313;28;20482;-66
2021/06/02 12:08:00;;;;;;;3.07;2.07;;;33.00;41.40;;;;;;5070467;28;20552;-67
2021/06/02 12:10:28;;;;;;;4.80;2.30;;;33.30;37.90;;;;;;5070155;28;20512;-66
2021/06/02 12:12:55;;;;;;;3.80;2.33;;;33.40;38.10;;;;;;5070637;28;20576;-67
2021/06/02 12:15:22;;;;;;;3.80;2.13;;;33.50;37.80;;;;;;5070304;28;20486;-67
2021/06/02 12:17:49;;;;;;;3.23;2.37;;;32.70;37.30;;;;;;5070090;28;21019;-66
2021/06/02 12:20:17;;;;;;;4.47;2.37;;;32.80;39.50;;;;;;5069808;28;20438;-66
2021/06/02 12:22:45;;;;;;;3.53;2.30;;;33.10;37.00;;;;;;5070020;28;20490;-66
2021/06/02 12:25:15;;;;;;;5.73;2.33;;;32.80;38.20;;;;;;5070353;28;20439;-66
2021/06/02 12:27:43;;;;;;;5.13;2.47;;;32.30;36.50;;;;;;5070171;28;20451;-66
2021/06/02 12:30:11;;;;;;;3.80;2.00;;;31.60;37.90;;;;;;5069521;28;20451;-66
2021/06/02 12:32:49;;;;;;;4.30;2.30;;;32.00;43.20;;;;;;5069874;28;20447;-67
2021/06/02 12:35:30;;;;;;;4.00;2.27;;;33.10;40.80;;;;;;5069940;28;20577;-66
2021/06/02 12:38:06;;;;;;;3.03;2.43;;;34.10;38.80;;;;;;5070236;28;20538;-66
2021/06/02 12:40:34;;;;;;;3.93;2.80;;;34.30;34.80;;;;;;5069808;28;20501;-67
2021/06/02 12:43:00;;;;;;;2.60;2.17;;;33.20;37.60;;;;;;5070004;28;20447;-66
2021/06/02 12:45:29;;;;;;;4.07;2.50;;;33.30;37.20;;;;;;5070400;28;20937;-66
2021/06/02 12:47:56;;;;;;;3.50;2.40;;;32.70;35.40;;;;;;5070208;28;20479;-66
2021/06/02 12:50:43;;;;;;;3.57;2.10;;;31.90;38.70;;;;;;5069568;28;20536;-67
2021/06/02 12:53:12;;;;;;;3.53;2.50;;;32.70;39.80;;;;;;5069975;28;20530;-67
2021/06/02 12:55:41;;;;;;;4.17;2.03;;;32.60;34.50;;;;;;5069900;28;20516;-66
2021/06/02 12:58:11;;;;;;;4.43;2.13;;;31.90;36.90;;;;;;5069644;28;20443;-66
2021/06/02 13:00:40;;;;;;;4.30;2.30;;;31.20;39.90;;;;;;5069257;28;21055;-66
2021/06/02 13:03:07;;;;;;;2.87;2.43;;;30.50;37.40;;;;;;5069589;28;20497;-67
2021/06/02 13:05:33;;;;;;;6.17;2.20;;;30.50;38.00;;;;;;5069676;28;20434;-67
2021/06/02 13:08:07;;;;;;;7.77;2.83;;;31.10;36.90;;;;;;5069481;28;20447;-66
2021/06/02 13:10:36;;;;;;;4.43;2.30;;;31.20;34.70;;;;;;5069176;28;20503;-67
2021/06/02 13:13:04;;;;;;;3.10;2.10;;;32.10;39.40;;;;;;5069768;28;20551;-67
2021/06/02 13:15:33;;;;;;;3.40;2.40;;;33.20;41.80;;;;;;5069782;28;20570;-67
2021/06/02 13:18:00;;;;;;;2.73;1.97;;;33.80;36.30;;;;;;5069445;28;20529;-67
2021/06/02 13:20:32;;;;;;;3.93;2.23;;;34.80;36.10;;;;;;5069007;28;20921;-67
2021/06/02 13:23:10;;;;;;;4.13;2.57;;;35.40;36.30;;;;;;5069350;28;20947;-67
2021/06/02 13:25:38;;;;;;;3.63;2.30;;;36.30;37.40;;;;;;5069547;28;20465;-67
2021/06/02 13:28:06;;;;;;;4.50;2.00;;;36.20;31.90;;;;;;5069533;28;20455;-67